Time;durP1;ratioP1;P1;durP2;ratioP2;P2;SDS_P1;SDS_P2;PMS_P1;PMS_P2;Temp;Humidity;BMP_temperature;BMP_pressure;BME280_temperature;BME280_humidity;BME280_pressure;Samples;Min_cycle;Max_cycle;Signal;HPM_P1;HPM_P2
2024/01/04 00:01:20;;;;;;;12.07;2.30;;;8.90;99.90;;;;;;4938125;28;20035;-75
2024/01/04 00:03:46;;;;;;;11.55;2.22;;;8.90;99.90;;;;;;4951837;28;20169;-76
2024/01/04 00:06:11;;;;;;;15.95;2.80;;;8.90;99.90;;;;;;4938911;28;20102;-75
2024/01/04 00:08:37;;;;;;;11.70;2.30;;;9.00;99.90;;;;;;4944891;28;20030;-75
2024/01/04 00:11:04;;;;;;;14.43;2.22;;;9.00;99.90;;;;;;4948133;28;20035;-75
2024/01/04 00:13:30;;;;;;;13.00;2.50;;;9.00;99.90;;;;;;4949403;28;20027;-75
2024/01/04 00:15:55;;;;;;;13.65;2.30;;;9.00;99.90;;;;;;4951816;28;20030;-75
2024/01/04 00:18:21;;;;;;;11.27;2.40;;;9.00;99.90;;;;;;4943864;28;20093;-75
2024/01/04 00:20:47;;;;;;;19.48;2.78;;;9.00;99.90;;;;;;4944469;28;20028;-76
2024/01/04 00:23:13;;;;;;;17.02;2.92;;;9.00;99.90;;;;;;4951233;28;20024;-75
2024/01/04 00:25:38;;;;;;;13.57;3.10;;;9.10;99.90;;;;;;4943619;28;20023;-75
2024/01/04 00:28:04;;;;;;;17.60;3.30;;;9.10;99.90;;;;;;4947943;28;20118;-75
2024/01/04 00:30:30;;;;;;;20.70;3.80;;;9.10;99.90;;;;;;4951686;28;20035;-75
2024/01/04 00:32:55;;;;;;;18.17;4.15;;;9.10;99.90;;;;;;4950943;28;20712;-76
2024/01/04 00:35:22;;;;;;;26.58;4.70;;;9.10;99.90;;;;;;5031677;28;20436;-75
2024/01/04 00:37:48;;;;;;;21.63;4.03;;;9.10;99.90;;;;;;4951017;28;20016;-75
2024/01/04 00:40:14;;;;;;;20.42;4.72;;;9.20;99.90;;;;;;4951785;28;20032;-76
2024/01/04 00:42:39;;;;;;;17.50;4.10;;;9.20;99.90;;;;;;4950691;28;20035;-75
2024/01/04 00:45:05;;;;;;;22.58;4.95;;;9.20;99.90;;;;;;5017038;28;20384;-75
2024/01/04 00:47:32;;;;;;;24.35;5.00;;;9.20;99.90;;;;;;4951005;28;20031;-75
2024/01/04 00:49:57;;;;;;;20.70;5.40;;;9.20;99.90;;;;;;4950378;28;20027;-75
2024/01/04 00:52:23;;;;;;;22.02;5.35;;;9.20;99.90;;;;;;4950821;29;20031;-75
2024/01/04 00:54:49;;;;;;;19.17;4.13;;;9.20;99.90;;;;;;4948916;28;20442;-75
2024/01/04 00:57:15;;;;;;;15.80;3.80;;;9.30;99.90;;;;;;4951648;28;20540;-75
2024/01/04 00:59:40;;;;;;;17.05;4.45;;;9.20;99.90;;;;;;4951186;28;20102;-75
2024/01/04 01:02:06;;;;;;;16.08;3.67;;;9.20;99.90;;;;;;4946116;28;20020;-75
2024/01/04 01:04:31;;;;;;;12.80;3.15;;;9.20;99.90;;;;;;4943054;28;20019;-75
2024/01/04 01:07:05;;;;;;;11.95;3.30;;;9.10;99.90;;;;;;4938382;28;20031;-75
2024/01/04 01:09:37;;;;;;;13.60;2.95;;;9.10;99.90;;;;;;4950886;28;20431;-75
2024/01/04 01:12:03;;;;;;;15.50;3.50;;;9.10;99.90;;;;;;4950796;28;20045;-75
2024/01/04 01:14:29;;;;;;;23.25;4.05;;;9.00;99.90;;;;;;4950317;29;20035;-75
2024/01/04 01:16:55;;;;;;;11.93;3.85;;;9.00;99.90;;;;;;4950845;28;20442;-75
2024/01/04 01:19:20;;;;;;;15.02;4.25;;;9.00;99.90;;;;;;4950617;28;20027;-75
2024/01/04 01:21:46;;;;;;;15.50;4.28;;;9.00;99.90;;;;;;4950115;28;20031;-75
2024/01/04 01:24:11;;;;;;;16.58;4.38;;;8.90;99.90;;;;;;4945913;28;20016;-75
2024/01/04 01:26:37;;;;;;;25.27;5.10;;;8.90;99.90;;;;;;4950280;28;20039;-75
2024/01/04 01:29:03;;;;;;;16.70;4.68;;;8.90;99.90;;;;;;4950425;28;20019;-75
2024/01/04 01:31:28;;;;;;;15.55;5.07;;;8.90;99.90;;;;;;4950367;28;20031;-75
2024/01/04 01:33:54;;;;;;;21.83;5.32;;;8.90;99.90;;;;;;4938059;28;20443;-75
2024/01/04 01:36:19;;;;;;;27.10;5.60;;;8.90;99.90;;;;;;4950217;28;20054;-75
2024/01/04 01:38:45;;;;;;;20.95;5.82;;;8.90;99.90;;;;;;4948355;28;20468;-75
2024/01/04 01:41:11;;;;;;;20.67;6.38;;;8.90;99.90;;;;;;4948482;28;20388;-75
2024/01/04 01:43:36;;;;;;;21.95;6.55;;;9.00;99.90;;;;;;4949967;28;20027;-75
2024/01/04 01:46:02;;;;;;;22.23;6.97;;;9.00;99.90;;;;;;4946001;28;20078;-75
2024/01/04 01:48:28;;;;;;;26.08;7.80;;;9.10;99.90;;;;;;4949699;28;20090;-75
2024/01/04 01:50:54;;;;;;;23.15;7.63;;;9.10;99.90;;;;;;4950323;28;20140;-75
2024/01/04 01:53:21;;;;;;;24.42;8.38;;;9.10;99.90;;;;;;4947824;28;20038;-75
2024/01/04 01:55:46;;;;;;;27.30;7.35;;;9.10;99.90;;;;;;4941799;29;20027;-75
2024/01/04 01:58:12;;;;;;;20.15;7.88;;;9.20;99.90;;;;;;4949834;28;20446;-75
2024/01/04 02:00:38;;;;;;;21.80;7.30;;;9.20;99.90;;;;;;4945707;28;20114;-75
2024/01/04 02:03:05;;;;;;;23.17;6.43;;;9.20;99.90;;;;;;4949768;28;20015;-75
2024/01/04 02:05:31;;;;;;;23.85;6.95;;;9.20;99.90;;;;;;4936995;28;20023;-75
2024/01/04 02:07:57;;;;;;;22.30;6.90;;;9.20;99.90;;;;;;4940289;28;20495;-74
2024/01/04 02:10:23;;;;;;;21.45;6.80;;;9.20;99.90;;;;;;4946061;29;20039;-75
2024/01/04 02:12:48;;;;;;;18.83;5.93;;;9.20;99.90;;;;;;4949982;28;20415;-75
2024/01/04 02:15:14;;;;;;;14.32;5.93;;;9.20;99.90;;;;;;4949507;28;20102;-75
2024/01/04 02:17:40;;;;;;;16.17;5.55;;;9.20;99.90;;;;;;4949259;28;20062;-75
2024/01/04 02:20:07;;;;;;;17.23;5.25;;;9.20;99.90;;;;;;4949396;29;20023;-75
2024/01/04 02:22:35;;;;;;;16.60;5.60;;;9.20;99.90;;;;;;4949615;29;20412;-75
2024/01/04 02:25:01;;;;;;;20.25;6.03;;;9.10;99.90;;;;;;4950270;28;20058;-75
2024/01/04 02:27:27;;;;;;;17.58;6.30;;;9.20;99.90;;;;;;4944366;28;20047;-75
2024/01/04 02:29:52;;;;;;;19.88;6.40;;;9.10;99.90;;;;;;4943660;28;20036;-75
2024/01/04 02:32:18;;;;;;;27.98;6.70;;;9.20;99.90;;;;;;4949224;28;20019;-76
2024/01/04 02:34:43;;;;;;;22.67;6.43;;;9.20;99.90;;;;;;5012649;28;20496;-76
2024/01/04 02:37:09;;;;;;;21.95;6.35;;;9.20;99.90;;;;;;4946371;28;20393;-76
2024/01/04 02:39:34;;;;;;;13.73;5.72;;;9.20;99.90;;;;;;4949031;28;20058;-75
2024/01/04 02:42:00;;;;;;;20.45;6.13;;;9.20;99.90;;;;;;4949392;28;20039;-75
2024/01/04 02:44:26;;;;;;;24.05;6.00;;;9.20;99.90;;;;;;4945351;28;20044;-75
2024/01/04 02:46:51;;;;;;;18.60;5.63;;;9.20;99.90;;;;;;4947872;28;20100;-75
2024/01/04 02:49:17;;;;;;;17.85;6.00;;;9.20;99.90;;;;;;4949198;28;20023;-75
2024/01/04 02:51:42;;;;;;;24.02;6.75;;;9.20;99.90;;;;;;4948555;28;20027;-75
2024/01/04 02:54:08;;;;;;;22.45;6.45;;;9.20;99.90;;;;;;4949161;28;20035;-75
2024/01/04 02:56:33;;;;;;;23.50;6.93;;;9.20;99.90;;;;;;4949209;29;20019;-75
2024/01/04 02:58:59;;;;;;;22.75;7.15;;;9.30;99.90;;;;;;4949258;28;20028;-75
2024/01/04 03:01:25;;;;;;;18.92;7.30;;;9.30;99.90;;;;;;4948880;28;20437;-75
2024/01/04 03:03:51;;;;;;;24.60;7.35;;;9.30;99.90;;;;;;4939084;28;20035;-76
2024/01/04 03:06:24;;;;;;;23.92;7.75;;;9.30;99.90;;;;;;4945425;28;20099;-75
2024/01/04 03:08:50;;;;;;;24.20;8.38;;;9.30;99.90;;;;;;4943689;28;20431;-75
2024/01/04 03:11:16;;;;;;;22.05;7.75;;;9.30;99.90;;;;;;4948311;29;20039;-75
2024/01/04 03:13:41;;;;;;;25.85;8.20;;;9.30;99.90;;;;;;4941948;29;20080;-76
2024/01/04 03:16:07;;;;;;;24.23;7.07;;;9.30;99.90;;;;;;4948750;28;20098;-76
2024/01/04 03:18:34;;;;;;;21.17;6.55;;;9.40;99.90;;;;;;4948602;28;20043;-76
2024/01/04 03:21:05;;;;;;;20.88;5.60;;;9.40;99.90;;;;;;4948521;28;20061;-76
2024/01/04 03:23:31;;;;;;;24.20;6.00;;;9.40;99.90;;;;;;4943061;28;20114;-75
2024/01/04 03:25:56;;;;;;;22.42;5.32;;;9.40;99.90;;;;;;4948785;28;20091;-75
2024/01/04 03:28:22;;;;;;;19.75;5.13;;;9.40;99.90;;;;;;4947894;28;20144;-75
2024/01/04 03:30:47;;;;;;;19.55;5.28;;;9.30;99.90;;;;;;4948489;28;20023;-74
2024/01/04 03:33:13;;;;;;;14.25;4.38;;;9.30;99.90;;;;;;4949068;28;20071;-73
2024/01/04 03:35:39;;;;;;;21.08;5.07;;;9.30;99.90;;;;;;4948906;28;20023;-74
2024/01/04 03:38:05;;;;;;;17.33;4.53;;;9.30;99.90;;;;;;4948982;28;20369;-73
2024/01/04 03:40:30;;;;;;;20.90;4.35;;;9.20;99.90;;;;;;4947085;28;20174;-74
2024/01/04 03:42:56;;;;;;;13.77;3.95;;;9.20;99.90;;;;;;4948759;29;20496;-74
2024/01/04 03:45:22;;;;;;;18.33;3.95;;;9.20;99.90;;;;;;4948581;28;20034;-74
2024/01/04 03:47:48;;;;;;;20.13;4.90;;;9.20;99.90;;;;;;4949402;28;20434;-74
2024/01/04 03:50:14;;;;;;;22.33;4.95;;;9.20;99.90;;;;;;4952427;28;20468;-74
2024/01/04 03:52:40;;;;;;;24.20;4.72;;;9.20;99.90;;;;;;4951959;28;20114;-74
2024/01/04 03:55:05;;;;;;;16.60;4.70;;;9.20;99.90;;;;;;4950808;28;20476;-74
2024/01/04 03:57:31;;;;;;;18.80;4.95;;;9.30;99.90;;;;;;4951843;28;20027;-74
2024/01/04 03:59:57;;;;;;;19.67;5.15;;;9.20;99.90;;;;;;4951193;29;20099;-74
2024/01/04 04:02:22;;;;;;;17.50;4.55;;;9.30;99.90;;;;;;5034596;28;20472;-74
2024/01/04 04:04:49;;;;;;;16.70;4.65;;;9.30;99.90;;;;;;4952190;28;20377;-74
2024/01/04 04:07:14;;;;;;;14.93;3.80;;;9.30;99.90;;;;;;4951516;28;20502;-73
2024/01/04 04:09:40;;;;;;;14.75;3.95;;;9.20;99.90;;;;;;4941924;28;20036;-74
2024/01/04 04:12:06;;;;;;;18.05;4.38;;;9.20;99.90;;;;;;4940463;28;20074;-74
2024/01/04 04:14:33;;;;;;;16.95;4.35;;;9.20;99.90;;;;;;4952419;28;20024;-74
2024/01/04 04:17:00;;;;;;;18.27;4.88;;;9.20;99.90;;;;;;5034114;28;20051;-73
2024/01/04 04:19:26;;;;;;;18.00;5.13;;;9.20;99.90;;;;;;5034971;28;20121;-74
2024/01/04 04:21:52;;;;;;;17.10;4.90;;;9.20;99.90;;;;;;4951167;28;20023;-74
2024/01/04 04:24:17;;;;;;;20.90;5.05;;;9.20;99.90;;;;;;4951953;29;20031;-74
2024/01/04 04:26:43;;;;;;;25.67;5.63;;;9.20;99.90;;;;;;4951234;28;20102;-74
2024/01/04 04:29:09;;;;;;;19.95;4.75;;;9.20;99.90;;;;;;4950761;28;20023;-74
2024/01/04 04:31:34;;;;;;;23.48;4.75;;;9.30;99.90;;;;;;4943740;28;20089;-74
2024/01/04 04:34:00;;;;;;;19.08;5.20;;;9.20;99.90;;;;;;4950299;28;20034;-74
2024/01/04 04:36:26;;;;;;;17.95;4.80;;;9.20;99.90;;;;;;4943561;28;20055;-74
2024/01/04 04:38:52;;;;;;;19.30;5.00;;;9.30;99.90;;;;;;4951012;28;20096;-74
2024/01/04 04:41:17;;;;;;;24.13;4.50;;;9.20;99.90;;;;;;4944443;28;20028;-74
2024/01/04 04:43:43;;;;;;;19.23;4.72;;;9.20;99.90;;;;;;4944832;28;20148;-74
2024/01/04 04:46:10;;;;;;;17.23;4.32;;;9.20;99.90;;;;;;4951326;28;20507;-74
2024/01/04 04:48:38;;;;;;;13.68;3.05;;;9.30;99.90;;;;;;4951290;28;20574;-74
2024/01/04 04:51:04;;;;;;;6.25;2.20;;;9.20;99.90;;;;;;4951419;29;20032;-74
2024/01/04 04:53:30;;;;;;;6.60;2.20;;;9.10;99.90;;;;;;4951378;28;20042;-74
2024/01/04 04:55:55;;;;;;;5.00;1.38;;;9.00;99.90;;;;;;4949917;28;20387;-74
2024/01/04 04:58:21;;;;;;;8.82;1.52;;;9.00;99.90;;;;;;4949133;28;20081;-74
2024/01/04 05:00:46;;;;;;;5.72;1.30;;;8.90;99.90;;;;;;4949579;28;20024;-74
2024/01/04 05:03:12;;;;;;;1.85;0.85;;;8.90;99.90;;;;;;4947038;28;20028;-74
2024/01/04 05:05:37;;;;;;;1.80;0.70;;;8.80;99.90;;;;;;4951013;28;20027;-74
2024/01/04 05:08:05;;;;;;;2.17;0.63;;;8.80;99.90;;;;;;4939916;28;20091;-73
2024/01/04 05:10:30;;;;;;;2.83;0.80;;;8.80;99.90;;;;;;4946461;28;20020;-74
2024/01/04 05:12:58;;;;;;;3.10;1.20;;;8.70;99.90;;;;;;4944983;28;20034;-73
2024/01/04 05:15:24;;;;;;;8.43;1.80;;;8.70;99.90;;;;;;4950760;28;20046;-74
2024/01/04 05:17:50;;;;;;;5.38;1.67;;;8.70;99.90;;;;;;4950318;28;20495;-73
2024/01/04 05:20:15;;;;;;;3.40;1.55;;;8.70;99.90;;;;;;4946484;28;20473;-73
2024/01/04 05:22:41;;;;;;;5.07;1.85;;;8.70;99.90;;;;;;4942320;28;20023;-74
2024/01/04 05:25:07;;;;;;;5.70;1.48;;;8.70;99.90;;;;;;4948300;28;20069;-74
2024/01/04 05:27:33;;;;;;;7.40;2.10;;;8.80;99.90;;;;;;4941740;28;20019;-74
2024/01/04 05:29:58;;;;;;;8.38;1.90;;;8.80;99.90;;;;;;4949973;28;20415;-74
2024/01/04 05:32:24;;;;;;;9.70;2.40;;;8.80;99.90;;;;;;4941173;28;20035;-74
2024/01/04 05:34:49;;;;;;;9.57;2.30;;;8.80;99.90;;;;;;4950207;28;20030;-74
2024/01/04 05:37:15;;;;;;;10.82;2.22;;;8.80;99.90;;;;;;4943513;28;20102;-74
2024/01/04 05:39:42;;;;;;;6.65;2.33;;;8.80;99.90;;;;;;4950288;28;20031;-74
2024/01/04 05:42:08;;;;;;;9.05;2.90;;;8.80;99.90;;;;;;4948976;28;20032;-74
2024/01/04 05:44:33;;;;;;;10.55;3.25;;;8.80;99.90;;;;;;4944776;28;20374;-74
2024/01/04 05:46:59;;;;;;;17.35;3.70;;;8.80;99.90;;;;;;4948893;28;20030;-74
2024/01/04 05:49:24;;;;;;;15.82;3.80;;;8.80;99.90;;;;;;4949571;28;20012;-73
2024/01/04 05:51:50;;;;;;;14.93;3.90;;;8.80;99.90;;;;;;4939875;28;20086;-74
2024/01/04 05:54:15;;;;;;;14.35;4.53;;;8.80;99.90;;;;;;4945549;28;20045;-74
2024/01/04 05:56:42;;;;;;;15.02;4.47;;;8.80;99.90;;;;;;4945580;28;20046;-74
2024/01/04 05:59:08;;;;;;;18.40;4.28;;;8.80;99.90;;;;;;4950426;28;20451;-74
2024/01/04 06:01:36;;;;;;;18.63;4.50;;;8.80;99.90;;;;;;4949155;28;20145;-74
2024/01/04 06:04:02;;;;;;;17.13;4.93;;;8.90;99.90;;;;;;4949857;28;20038;-74
2024/01/04 06:06:27;;;;;;;19.25;4.78;;;8.90;99.90;;;;;;4949758;28;20023;-74
2024/01/04 06:08:53;;;;;;;18.83;4.53;;;8.90;99.90;;;;;;4949734;28;20015;-74
2024/01/04 06:11:18;;;;;;;13.52;4.22;;;8.90;99.90;;;;;;4948195;28;20374;-74
2024/01/04 06:13:44;;;;;;;16.42;4.15;;;8.90;99.90;;;;;;4949577;28;20023;-74
2024/01/04 06:16:10;;;;;;;19.05;4.18;;;9.00;99.90;;;;;;4950422;28;20024;-75
2024/01/04 06:18:36;;;;;;;17.73;4.75;;;9.00;99.90;;;;;;4938299;29;20048;-75
2024/01/04 06:21:02;;;;;;;21.35;4.82;;;9.00;99.90;;;;;;4949489;28;20251;-75
2024/01/04 06:23:28;;;;;;;22.17;4.95;;;9.00;99.90;;;;;;4949369;28;20429;-74
2024/01/04 06:25:54;;;;;;;26.02;4.20;;;9.00;99.90;;;;;;4949577;29;20089;-75
2024/01/04 06:28:22;;;;;;;16.35;4.82;;;9.00;99.90;;;;;;4935661;28;20027;-76
2024/01/04 06:30:48;;;;;;;17.95;4.03;;;9.00;99.90;;;;;;4949589;28;20488;-76
2024/01/04 06:33:14;;;;;;;17.98;4.38;;;9.00;99.90;;;;;;4949644;28;20027;-76
2024/01/04 06:35:40;;;;;;;18.83;4.35;;;9.00;99.90;;;;;;4947077;28;20036;-76
2024/01/04 06:38:09;;;;;;;21.95;4.65;;;9.00;99.90;;;;;;4950108;28;20030;-76
2024/01/04 06:40:35;;;;;;;17.88;4.80;;;9.00;99.90;;;;;;4949666;29;20015;-76
2024/01/04 06:43:03;;;;;;;14.52;4.50;;;9.10;99.90;;;;;;4949811;28;20039;-76
2024/01/04 06:45:29;;;;;;;15.07;4.65;;;9.10;99.90;;;;;;4937159;28;20386;-76
2024/01/04 06:47:54;;;;;;;14.38;3.38;;;9.10;99.90;;;;;;4949961;28;20081;-76
2024/01/04 06:50:20;;;;;;;8.60;2.80;;;9.00;99.90;;;;;;4945908;28;20020;-76
2024/01/04 06:52:46;;;;;;;10.23;2.67;;;9.00;99.90;;;;;;4949570;28;20495;-76
2024/01/04 06:55:13;;;;;;;7.57;2.10;;;8.90;99.90;;;;;;4948197;28;20035;-76
2024/01/04 06:57:38;;;;;;;9.80;2.03;;;8.90;99.90;;;;;;4948413;28;20039;-76
2024/01/04 07:00:07;;;;;;;16.20;2.10;;;8.90;99.90;;;;;;4948831;28;20027;-76
2024/01/04 07:02:35;;;;;;;6.90;2.00;;;8.80;99.90;;;;;;4937150;28;20175;-76
2024/01/04 07:05:04;;;;;;;6.38;2.05;;;8.70;99.90;;;;;;4949165;28;20020;-73
2024/01/04 07:07:34;;;;;;;9.35;2.22;;;8.70;99.90;;;;;;4945967;28;20031;-73
2024/01/04 07:09:59;;;;;;;6.10;1.85;;;8.70;99.90;;;;;;4948596;28;20021;-73
2024/01/04 07:12:25;;;;;;;5.70;1.65;;;8.70;99.90;;;;;;4948291;29;20023;-73
2024/01/04 07:14:52;;;;;;;5.25;1.40;;;8.70;99.90;;;;;;4943847;28;20043;-73
2024/01/04 07:17:17;;;;;;;6.22;1.73;;;8.70;99.90;;;;;;4943765;28;20055;-74
2024/01/04 07:19:43;;;;;;;5.65;1.92;;;8.70;99.90;;;;;;4948716;28;20488;-76
2024/01/04 07:22:10;;;;;;;6.50;1.80;;;8.70;99.90;;;;;;4947234;28;20337;-76
2024/01/04 07:24:36;;;;;;;9.07;1.95;;;8.70;99.90;;;;;;4942914;29;20037;-73
2024/01/04 07:27:02;;;;;;;12.07;1.70;;;8.70;99.90;;;;;;4947691;28;20027;-73
2024/01/04 07:29:27;;;;;;;8.27;1.70;;;8.70;99.90;;;;;;4948773;28;20089;-73
2024/01/04 07:31:54;;;;;;;12.77;2.22;;;8.70;99.90;;;;;;4937484;28;20035;-73
2024/01/04 07:34:21;;;;;;;4.60;1.33;;;8.70;99.90;;;;;;4948849;28;20097;-73
2024/01/04 07:36:46;;;;;;;9.00;1.77;;;8.80;99.90;;;;;;4944271;28;20383;-74
2024/01/04 07:39:12;;;;;;;5.30;1.33;;;8.80;99.90;;;;;;4943844;28;20118;-75
2024/01/04 07:41:38;;;;;;;9.98;1.70;;;8.80;99.90;;;;;;4946826;28;20043;-75
2024/01/04 07:44:04;;;;;;;9.02;1.50;;;8.80;99.90;;;;;;4941201;28;20125;-75
2024/01/04 07:46:30;;;;;;;11.23;1.52;;;8.80;99.90;;;;;;4948111;28;20032;-75
2024/01/04 07:48:56;;;;;;;7.90;1.60;;;8.80;99.90;;;;;;4944401;28;20422;-75
2024/01/04 07:51:22;;;;;;;8.27;1.50;;;8.70;99.90;;;;;;4947163;28;20047;-75
2024/01/04 07:53:47;;;;;;;8.98;1.52;;;8.70;99.90;;;;;;4937999;28;20038;-75
2024/01/04 07:56:13;;;;;;;15.18;1.50;;;8.70;99.90;;;;;;4944068;28;20027;-75
2024/01/04 07:58:39;;;;;;;5.63;1.33;;;8.70;99.90;;;;;;4947924;28;20035;-75
2024/01/04 08:01:05;;;;;;;8.38;1.15;;;8.70;99.90;;;;;;4943927;28;20020;-75
2024/01/04 08:03:30;;;;;;;10.50;1.23;;;8.60;99.90;;;;;;4944785;28;20031;-75
2024/01/04 08:05:56;;;;;;;7.03;1.15;;;8.70;99.90;;;;;;4944557;28;20030;-75
2024/01/04 08:08:21;;;;;;;10.48;1.38;;;8.70;99.90;;;;;;4948048;28;20091;-75
2024/01/04 08:10:47;;;;;;;6.45;1.30;;;8.70;99.90;;;;;;4948220;28;20051;-75
2024/01/04 08:13:16;;;;;;;7.15;1.30;;;8.70;99.90;;;;;;4942135;28;20035;-75
2024/01/04 08:15:42;;;;;;;3.05;1.00;;;8.70;99.90;;;;;;4963157;28;20027;-75
2024/01/04 08:18:07;;;;;;;6.45;1.30;;;8.60;99.90;;;;;;4944465;28;20051;-75
2024/01/04 08:20:33;;;;;;;5.28;1.00;;;8.70;99.90;;;;;;4946475;28;20388;-75
2024/01/04 08:22:59;;;;;;;8.73;1.20;;;8.60;99.90;;;;;;4944727;28;20077;-75
2024/01/04 08:25:25;;;;;;;8.50;1.20;;;8.60;99.90;;;;;;4946744;28;20030;-75
2024/01/04 08:27:50;;;;;;;6.65;1.10;;;8.60;99.90;;;;;;4947315;28;20077;-76
2024/01/04 08:30:16;;;;;;;6.68;1.05;;;8.60;99.90;;;;;;4947810;29;20390;-76
2024/01/04 08:32:41;;;;;;;6.18;1.10;;;8.60;99.90;;;;;;4940655;28;20060;-76
2024/01/04 08:35:07;;;;;;;6.75;1.50;;;8.60;99.90;;;;;;4950762;28;20036;-76
2024/01/04 08:37:33;;;;;;;12.32;1.85;;;8.70;99.90;;;;;;4946011;29;20027;-76
2024/01/04 08:39:58;;;;;;;5.43;1.73;;;8.70;99.90;;;;;;4951274;28;20037;-76
2024/01/04 08:42:24;;;;;;;10.20;1.80;;;8.70;99.90;;;;;;4948093;28;20045;-76
2024/01/04 08:44:50;;;;;;;8.98;1.70;;;8.60;99.90;;;;;;4951081;28;20491;-76
2024/01/04 08:47:15;;;;;;;8.88;1.88;;;8.70;99.90;;;;;;4949236;29;20086;-76
2024/01/04 08:49:41;;;;;;;10.50;2.00;;;8.70;99.90;;;;;;4950871;28;20031;-76
2024/01/04 08:52:06;;;;;;;5.10;1.35;;;8.70;99.90;;;;;;4950556;28;20499;-76
2024/01/04 08:54:32;;;;;;;8.40;1.70;;;8.70;99.90;;;;;;4950808;29;20077;-76
2024/01/04 08:56:57;;;;;;;11.35;2.05;;;8.70;99.90;;;;;;5033878;28;20035;-76
2024/01/04 08:59:23;;;;;;;12.15;1.92;;;8.70;99.90;;;;;;4947858;28;20396;-76
2024/01/04 09:01:49;;;;;;;11.70;1.75;;;8.80;99.90;;;;;;4942434;28;20031;-76
2024/01/04 09:04:14;;;;;;;6.60;1.80;;;8.80;99.90;;;;;;4950195;28;20394;-76
2024/01/04 09:06:40;;;;;;;12.02;2.22;;;8.80;99.90;;;;;;4950815;29;20024;-76
2024/01/04 09:09:07;;;;;;;15.25;2.30;;;8.80;99.90;;;;;;4950171;29;20304;-76
2024/01/04 09:11:38;;;;;;;9.68;1.90;;;8.90;99.90;;;;;;4948411;28;20084;-76
2024/01/04 09:14:11;;;;;;;10.48;2.35;;;8.80;99.90;;;;;;5016134;28;20332;-75
2024/01/04 09:16:44;;;;;;;10.30;1.83;;;8.90;99.90;;;;;;4950606;28;20071;-75
2024/01/04 09:19:17;;;;;;;11.75;2.00;;;8.90;99.90;;;;;;4954516;28;20063;-76
2024/01/04 09:21:44;;;;;;;13.60;2.10;;;8.90;99.90;;;;;;4949261;28;20023;-76
2024/01/04 09:24:12;;;;;;;7.72;1.90;;;9.00;99.90;;;;;;4951524;28;20680;-74
2024/01/04 09:26:41;;;;;;;7.00;1.73;;;9.00;99.90;;;;;;4951045;28;20039;-74
2024/01/04 09:29:08;;;;;;;18.52;2.95;;;9.00;99.90;;;;;;4949340;28;20114;-72
2024/01/04 09:31:34;;;;;;;16.70;2.03;;;9.10;99.90;;;;;;4960927;28;20095;-72
2024/01/04 09:33:59;;;;;;;9.45;1.92;;;9.20;99.90;;;;;;4949936;28;20067;-73
2024/01/04 09:36:25;;;;;;;9.05;1.70;;;9.20;99.90;;;;;;4949994;28;20098;-73
2024/01/04 09:38:50;;;;;;;11.02;2.15;;;9.30;99.90;;;;;;4938265;28;20026;-72
2024/01/04 09:41:25;;;;;;;16.05;2.65;;;9.30;99.90;;;;;;4950105;28;20511;-73
2024/01/04 09:44:03;;;;;;;10.30;2.05;;;9.30;99.90;;;;;;4948372;28;20028;-72
2024/01/04 09:46:37;;;;;;;13.90;2.30;;;9.40;99.90;;;;;;4950214;29;20042;-75
2024/01/04 09:49:03;;;;;;;17.05;2.20;;;9.40;99.90;;;;;;4948929;28;20411;-75
2024/01/04 09:51:33;;;;;;;7.60;1.90;;;9.40;99.90;;;;;;4948842;28;20388;-75
2024/01/04 09:53:59;;;;;;;11.77;2.40;;;9.40;99.90;;;;;;4948619;28;20038;-75
2024/01/04 09:56:26;;;;;;;9.43;1.95;;;9.50;99.90;;;;;;4942057;29;20031;-75
2024/01/04 09:58:53;;;;;;;11.15;1.92;;;9.50;99.90;;;;;;4963360;28;20073;-75
2024/01/04 10:01:23;;;;;;;11.85;1.90;;;9.50;99.90;;;;;;4948872;28;20357;-74
2024/01/04 10:03:49;;;;;;;6.03;1.65;;;9.50;99.90;;;;;;4949695;28;20023;-75
2024/01/04 10:06:28;;;;;;;9.13;1.70;;;9.50;99.90;;;;;;4949810;28;20702;-74
2024/01/04 10:09:05;;;;;;;7.72;1.50;;;9.40;99.90;;;;;;4946131;28;20428;-75
2024/01/04 10:11:38;;;;;;;10.50;2.00;;;9.40;99.90;;;;;;4944361;28;20110;-74
2024/01/04 10:14:05;;;;;;;14.60;2.30;;;9.40;99.90;;;;;;4945713;28;20039;-75
2024/01/04 10:16:33;;;;;;;11.43;1.73;;;9.50;99.90;;;;;;4949774;29;20108;-75
2024/01/04 10:19:00;;;;;;;2.60;0.90;;;9.50;99.90;;;;;;4949343;28;20442;-75
2024/01/04 10:21:31;;;;;;;3.80;1.38;;;9.50;99.90;;;;;;4949430;29;20110;-74
2024/01/04 10:23:58;;;;;;;7.18;0.90;;;9.40;99.90;;;;;;4947024;28;20008;-75
2024/01/04 10:26:23;;;;;;;5.15;1.20;;;9.40;99.90;;;;;;4949116;28;20027;-75
2024/01/04 10:28:55;;;;;;;6.05;1.17;;;9.30;99.90;;;;;;4948944;28;20031;-75
2024/01/04 10:31:20;;;;;;;8.93;1.20;;;9.30;99.90;;;;;;4949754;28;20047;-74
2024/01/04 10:33:46;;;;;;;4.28;0.93;;;9.20;99.90;;;;;;4948998;29;20217;-75
2024/01/04 10:36:12;;;;;;;5.47;1.17;;;9.20;99.90;;;;;;4949452;29;20475;-75
2024/01/04 10:38:38;;;;;;;2.60;0.90;;;9.20;99.90;;;;;;4949488;28;20430;-75
2024/01/04 10:41:04;;;;;;;6.03;1.20;;;9.20;99.90;;;;;;4944868;28;20400;-75
2024/01/04 10:43:36;;;;;;;10.80;1.30;;;9.20;99.90;;;;;;4948256;28;20033;-75
2024/01/04 10:46:08;;;;;;;7.15;1.05;;;9.30;99.90;;;;;;4948494;28;20043;-75
2024/01/04 10:48:45;;;;;;;6.30;1.30;;;9.20;99.90;;;;;;4949803;28;20055;-75
2024/01/04 10:51:12;;;;;;;7.75;1.83;;;9.30;99.90;;;;;;4936849;28;20023;-75
2024/01/04 10:53:38;;;;;;;7.97;1.27;;;9.30;99.90;;;;;;4949211;28;20384;-75
2024/01/04 10:56:05;;;;;;;7.40;1.77;;;9.40;99.90;;;;;;4949579;28;20436;-73
2024/01/04 10:58:37;;;;;;;6.65;1.40;;;9.40;99.90;;;;;;4947553;28;20024;-75
2024/01/04 11:01:04;;;;;;;6.43;1.30;;;9.40;99.90;;;;;;4945819;28;20427;-75
2024/01/04 11:03:31;;;;;;;9.55;1.50;;;9.50;99.90;;;;;;4945814;28;20034;-75
2024/01/04 11:06:02;;;;;;;12.00;1.85;;;9.50;99.90;;;;;;4946674;28;20401;-75
2024/01/04 11:08:29;;;;;;;11.45;2.67;;;9.60;99.90;;;;;;4943142;28;20128;-75
2024/01/04 11:10:55;;;;;;;7.25;1.95;;;9.60;99.90;;;;;;4944789;28;20036;-75
2024/01/04 11:13:21;;;;;;;13.07;2.20;;;9.70;99.90;;;;;;4944000;28;20031;-75
2024/01/04 11:15:53;;;;;;;11.68;2.20;;;9.70;99.90;;;;;;4938098;28;20080;-75
2024/01/04 11:18:40;;;;;;;10.32;1.80;;;9.70;99.90;;;;;;4928732;28;20048;-75
2024/01/04 11:21:33;;;;;;;12.35;1.80;;;9.80;99.90;;;;;;4948694;28;20031;-75
2024/01/04 11:24:06;;;;;;;13.25;1.65;;;9.80;99.90;;;;;;4934777;28;20517;-75
2024/01/04 11:26:56;;;;;;;13.52;1.70;;;9.80;99.90;;;;;;4937833;29;20015;-75
2024/01/04 11:29:23;;;;;;;8.75;2.17;;;9.80;99.90;;;;;;4935765;28;20035;-75
2024/01/04 11:31:49;;;;;;;10.52;1.90;;;9.80;99.90;;;;;;4936722;28;20038;-75
2024/01/04 11:34:15;;;;;;;12.50;1.83;;;9.90;99.90;;;;;;4929668;28;20225;-75
2024/01/04 11:36:41;;;;;;;10.23;1.70;;;9.90;99.90;;;;;;4933927;28;20028;-75
2024/01/04 11:39:07;;;;;;;11.50;1.73;;;9.90;99.90;;;;;;4946515;28;20488;-75
2024/01/04 11:41:36;;;;;;;10.23;1.90;;;9.90;99.90;;;;;;4946172;28;20023;-75
2024/01/04 11:44:02;;;;;;;8.00;1.35;;;9.90;99.90;;;;;;4947538;28;20047;-75
2024/01/04 11:46:29;;;;;;;17.63;1.98;;;10.00;99.90;;;;;;4948103;28;20403;-75
2024/01/04 11:49:05;;;;;;;13.63;1.58;;;10.00;99.90;;;;;;4947911;28;20168;-75
2024/01/04 11:51:44;;;;;;;9.75;1.70;;;10.00;99.90;;;;;;5026759;28;20038;-75
2024/01/04 11:54:10;;;;;;;12.18;2.33;;;10.00;99.90;;;;;;4936266;28;20027;-75
2024/01/04 11:56:39;;;;;;;8.18;1.60;;;10.00;99.90;;;;;;4947898;28;20624;-75
2024/01/04 11:59:08;;;;;;;11.00;1.60;;;10.00;99.90;;;;;;4946436;29;20110;-75
2024/01/04 12:01:40;;;;;;;10.05;2.13;;;10.00;99.90;;;;;;4943545;29;20051;-75
2024/01/04 12:04:11;;;;;;;9.32;1.55;;;10.00;99.90;;;;;;4941167;28;20073;-76
2024/01/04 12:06:40;;;;;;;14.88;2.10;;;10.00;99.90;;;;;;5013035;28;20492;-75
2024/01/04 12:09:10;;;;;;;12.07;1.90;;;10.00;99.90;;;;;;5025881;28;20062;-75
2024/01/04 12:11:37;;;;;;;18.30;2.10;;;10.00;99.90;;;;;;4989726;28;20633;-74
2024/01/04 12:14:05;;;;;;;9.20;1.83;;;10.00;99.90;;;;;;4951048;29;20059;-74
2024/01/04 12:16:31;;;;;;;6.60;1.73;;;10.00;99.90;;;;;;5014487;28;20027;-74
2024/01/04 12:18:57;;;;;;;7.10;1.40;;;9.90;99.90;;;;;;4949790;28;20042;-74
2024/01/04 12:21:25;;;;;;;1.75;0.80;;;9.80;99.90;;;;;;4949670;28;20035;-75
2024/01/04 12:23:52;;;;;;;3.03;0.95;;;9.70;99.90;;;;;;4947157;28;20042;-74
2024/01/04 12:26:23;;;;;;;2.70;1.00;;;9.50;99.90;;;;;;4950811;28;20026;-75
2024/01/04 12:28:52;;;;;;;2.95;0.70;;;9.40;99.90;;;;;;4950305;29;20290;-75
2024/01/04 12:31:27;;;;;;;3.45;1.00;;;9.20;99.90;;;;;;4950108;29;20023;-74
2024/01/04 12:33:54;;;;;;;4.32;0.98;;;9.10;99.90;;;;;;4949321;28;20442;-74
2024/01/04 12:36:23;;;;;;;5.75;1.00;;;9.00;99.90;;;;;;4951342;29;20035;-75
2024/01/04 12:38:50;;;;;;;6.45;1.55;;;9.00;99.90;;;;;;4940374;28;20040;-75
2024/01/04 12:41:28;;;;;;;5.53;1.42;;;9.00;99.90;;;;;;4945966;28;20031;-75
2024/01/04 12:43:55;;;;;;;4.00;1.00;;;9.00;99.90;;;;;;4941420;28;20035;-75
2024/01/04 12:46:21;;;;;;;7.22;1.38;;;9.00;99.90;;;;;;4943586;28;20076;-75
2024/01/04 12:48:53;;;;;;;6.78;1.50;;;9.00;99.90;;;;;;4939376;28;20024;-75